sensor_id;sensor_type;location;lat;lon;timestamp;temperature;humidity
21944;DHT22;11136;48.778;9.126;2022-07-23T00:01:16;27.50;61.40
21944;DHT22;11136;48.778;9.126;2022-07-23T00:03:42;27.50;61.50
21944;DHT22;11136;48.778;9.126;2022-07-23T00:06:07;27.60;61.90
21944;DHT22;11136;48.778;9.126;2022-07-23T00:08:33;27.50;61.90
21944;DHT22;11136;48.778;9.126;2022-07-23T00:10:58;27.50;62.00
21944;DHT22;11136;48.778;9.126;2022-07-23T00:13:24;27.50;62.30
21944;DHT22;11136;48.778;9.126;2022-07-23T00:15:50;27.40;62.50
21944;DHT22;11136;48.778;9.126;2022-07-23T00:18:15;27.40;62.60
21944;DHT22;11136;48.778;9.126;2022-07-23T00:20:41;27.30;62.80
21944;DHT22;11136;48.778;9.126;2022-07-23T00:23:06;27.20;63.10
21944;DHT22;11136;48.778;9.126;2022-07-23T00:25:32;27.10;63.30
21944;DHT22;11136;48.778;9.126;2022-07-23T00:27:58;27.10;63.50
21944;DHT22;11136;48.778;9.126;2022-07-23T00:30:25;27.10;63.80
21944;DHT22;11136;48.778;9.126;2022-07-23T00:32:55;27.20;64.00
21944;DHT22;11136;48.778;9.126;2022-07-23T00:35:23;27.00;64.10
21944;DHT22;11136;48.778;9.126;2022-07-23T00:37:50;27.00;64.10
21944;DHT22;11136;48.778;9.126;2022-07-23T00:40:16;26.90;64.20
21944;DHT22;11136;48.778;9.126;2022-07-23T00:42:41;26.80;64.60
21944;DHT22;11136;48.778;9.126;2022-07-23T00:45:07;26.80;65.20
21944;DHT22;11136;48.778;9.126;2022-07-23T00:47:33;26.80;66.00
21944;DHT22;11136;48.778;9.126;2022-07-23T00:49:59;26.70;66.40
21944;DHT22;11136;48.778;9.126;2022-07-23T00:52:24;26.70;66.80
21944;DHT22;11136;48.778;9.126;2022-07-23T00:54:50;26.60;66.60
21944;DHT22;11136;48.778;9.126;2022-07-23T00:57:16;26.60;66.80
21944;DHT22;11136;48.778;9.126;2022-07-23T00:59:42;26.70;67.10
21944;DHT22;11136;48.778;9.126;2022-07-23T01:02:08;26.60;67.20
21944;DHT22;11136;48.778;9.126;2022-07-23T01:04:34;26.50;67.40
21944;DHT22;11136;48.778;9.126;2022-07-23T01:07:00;26.40;67.60
21944;DHT22;11136;48.778;9.126;2022-07-23T01:09:26;26.30;67.80
21944;DHT22;11136;48.778;9.126;2022-07-23T01:11:54;26.30;68.00
21944;DHT22;11136;48.778;9.126;2022-07-23T01:14:20;26.20;68.30
21944;DHT22;11136;48.778;9.126;2022-07-23T01:16:48;26.20;68.60
21944;DHT22;11136;48.778;9.126;2022-07-23T01:19:14;26.20;68.80
21944;DHT22;11136;48.778;9.126;2022-07-23T01:21:48;26.20;68.90
21944;DHT22;11136;48.778;9.126;2022-07-23T01:24:14;26.20;69.00
21944;DHT22;11136;48.778;9.126;2022-07-23T01:26:44;26.10;69.00
21944;DHT22;11136;48.778;9.126;2022-07-23T01:29:10;26.10;69.10
21944;DHT22;11136;48.778;9.126;2022-07-23T01:31:36;26.10;69.20
21944;DHT22;11136;48.778;9.126;2022-07-23T01:34:02;26.00;69.50
21944;DHT22;11136;48.778;9.126;2022-07-23T01:36:28;26.00;69.50
21944;DHT22;11136;48.778;9.126;2022-07-23T01:38:54;26.00;69.70
21944;DHT22;11136;48.778;9.126;2022-07-23T01:41:19;26.00;69.90
21944;DHT22;11136;48.778;9.126;2022-07-23T01:43:45;26.00;69.90
21944;DHT22;11136;48.778;9.126;2022-07-23T01:46:11;26.00;69.90
21944;DHT22;11136;48.778;9.126;2022-07-23T01:48:36;26.10;70.20
21944;DHT22;11136;48.778;9.126;2022-07-23T01:51:02;25.90;70.10
21944;DHT22;11136;48.778;9.126;2022-07-23T01:53:28;25.80;70.30
21944;DHT22;11136;48.778;9.126;2022-07-23T01:55:56;25.90;70.50
21944;DHT22;11136;48.778;9.126;2022-07-23T01:58:22;25.70;70.60
21944;DHT22;11136;48.778;9.126;2022-07-23T02:00:48;25.70;70.70
21944;DHT22;11136;48.778;9.126;2022-07-23T02:03:13;25.60;70.90
21944;DHT22;11136;48.778;9.126;2022-07-23T02:05:39;25.50;71.20
21944;DHT22;11136;48.778;9.126;2022-07-23T02:08:04;25.40;71.50
21944;DHT22;11136;48.778;9.126;2022-07-23T02:10:30;25.40;71.90
21944;DHT22;11136;48.778;9.126;2022-07-23T02:12:56;25.30;72.10
21944;DHT22;11136;48.778;9.126;2022-07-23T02:15:21;25.30;72.30
21944;DHT22;11136;48.778;9.126;2022-07-23T02:17:47;25.30;72.40
21944;DHT22;11136;48.778;9.126;2022-07-23T02:20:12;25.30;72.50
21944;DHT22;11136;48.778;9.126;2022-07-23T02:22:38;25.30;72.40
21944;DHT22;11136;48.778;9.126;2022-07-23T02:25:06;25.30;72.40
21944;DHT22;11136;48.778;9.126;2022-07-23T02:27:31;25.40;72.50
21944;DHT22;11136;48.778;9.126;2022-07-23T02:29:57;25.30;72.20
21944;DHT22;11136;48.778;9.126;2022-07-23T02:32:23;25.30;72.10
21944;DHT22;11136;48.778;9.126;2022-07-23T02:34:50;25.20;72.10
21944;DHT22;11136;48.778;9.126;2022-07-23T02:37:16;25.30;72.50
21944;DHT22;11136;48.778;9.126;2022-07-23T02:39:42;25.30;72.70
21944;DHT22;11136;48.778;9.126;2022-07-23T02:42:07;25.30;73.00
21944;DHT22;11136;48.778;9.126;2022-07-23T02:44:33;25.20;72.90
21944;DHT22;11136;48.778;9.126;2022-07-23T02:46:58;25.30;73.20
21944;DHT22;11136;48.778;9.126;2022-07-23T02:49:24;25.20;73.30
21944;DHT22;11136;48.778;9.126;2022-07-23T02:51:50;25.20;73.20
21944;DHT22;11136;48.778;9.126;2022-07-23T02:54:16;25.20;73.20
21944;DHT22;11136;48.778;9.126;2022-07-23T02:56:41;25.10;73.30
21944;DHT22;11136;48.778;9.126;2022-07-23T02:59:07;25.10;73.50
21944;DHT22;11136;48.778;9.126;2022-07-23T03:01:34;25.00;73.80
21944;DHT22;11136;48.778;9.126;2022-07-23T03:03:59;24.90;74.20
21944;DHT22;11136;48.778;9.126;2022-07-23T03:06:25;24.90;74.40
21944;DHT22;11136;48.778;9.126;2022-07-23T03:08:51;24.80;74.90
21944;DHT22;11136;48.778;9.126;2022-07-23T03:11:17;24.80;74.90
21944;DHT22;11136;48.778;9.126;2022-07-23T03:13:42;24.80;75.30
21944;DHT22;11136;48.778;9.126;2022-07-23T03:16:08;24.80;75.50
21944;DHT22;11136;48.778;9.126;2022-07-23T03:18:33;24.70;75.70
21944;DHT22;11136;48.778;9.126;2022-07-23T03:20:59;24.70;75.60
21944;DHT22;11136;48.778;9.126;2022-07-23T03:23:25;24.70;75.60
21944;DHT22;11136;48.778;9.126;2022-07-23T03:25:50;24.70;75.70
21944;DHT22;11136;48.778;9.126;2022-07-23T03:28:16;24.70;75.70
21944;DHT22;11136;48.778;9.126;2022-07-23T03:30:46;24.70;75.90
21944;DHT22;11136;48.778;9.126;2022-07-23T03:33:16;24.80;76.10
21944;DHT22;11136;48.778;9.126;2022-07-23T03:35:43;24.70;75.90
21944;DHT22;11136;48.778;9.126;2022-07-23T03:38:08;24.70;76.00
21944;DHT22;11136;48.778;9.126;2022-07-23T03:40:34;24.70;76.30
21944;DHT22;11136;48.778;9.126;2022-07-23T03:43:00;24.70;76.40
21944;DHT22;11136;48.778;9.126;2022-07-23T03:45:25;24.70;76.50
21944;DHT22;11136;48.778;9.126;2022-07-23T03:47:51;24.70;76.60
21944;DHT22;11136;48.778;9.126;2022-07-23T03:50:16;24.70;76.80
21944;DHT22;11136;48.778;9.126;2022-07-23T03:52:42;24.70;76.80
21944;DHT22;11136;48.778;9.126;2022-07-23T03:55:08;24.60;76.60
21944;DHT22;11136;48.778;9.126;2022-07-23T03:57:33;24.60;76.60
21944;DHT22;11136;48.778;9.126;2022-07-23T03:59:59;24.50;76.70
21944;DHT22;11136;48.778;9.126;2022-07-23T04:02:24;24.50;76.80
21944;DHT22;11136;48.778;9.126;2022-07-23T04:04:50;24.50;77.00
21944;DHT22;11136;48.778;9.126;2022-07-23T04:07:16;24.50;77.30
21944;DHT22;11136;48.778;9.126;2022-07-23T04:09:43;24.50;77.70
21944;DHT22;11136;48.778;9.126;2022-07-23T04:12:09;24.50;77.80
21944;DHT22;11136;48.778;9.126;2022-07-23T04:14:35;24.50;77.90
21944;DHT22;11136;48.778;9.126;2022-07-23T04:17:01;24.60;78.00
21944;DHT22;11136;48.778;9.126;2022-07-23T04:19:26;24.60;77.80
21944;DHT22;11136;48.778;9.126;2022-07-23T04:21:52;24.60;77.60
21944;DHT22;11136;48.778;9.126;2022-07-23T04:24:18;24.50;77.60
21944;DHT22;11136;48.778;9.126;2022-07-23T04:26:44;24.50;77.70
21944;DHT22;11136;48.778;9.126;2022-07-23T04:29:10;24.60;78.80
21944;DHT22;11136;48.778;9.126;2022-07-23T04:31:35;24.50;78.00
21944;DHT22;11136;48.778;9.126;2022-07-23T04:34:01;24.50;78.00
21944;DHT22;11136;48.778;9.126;2022-07-23T04:36:26;24.50;77.90
21944;DHT22;11136;48.778;9.126;2022-07-23T04:38:52;24.50;77.80
21944;DHT22;11136;48.778;9.126;2022-07-23T04:41:17;24.40;77.90
21944;DHT22;11136;48.778;9.126;2022-07-23T04:43:43;24.40;78.10
21944;DHT22;11136;48.778;9.126;2022-07-23T04:46:08;24.30;78.10
21944;DHT22;11136;48.778;9.126;2022-07-23T04:48:36;24.30;78.20
21944;DHT22;11136;48.778;9.126;2022-07-23T04:51:01;24.30;78.50
21944;DHT22;11136;48.778;9.126;2022-07-23T04:53:27;24.30;78.80
21944;DHT22;11136;48.778;9.126;2022-07-23T04:55:53;24.30;78.80
21944;DHT22;11136;48.778;9.126;2022-07-23T04:58:19;24.30;78.90
21944;DHT22;11136;48.778;9.126;2022-07-23T05:00:44;24.30;78.90
21944;DHT22;11136;48.778;9.126;2022-07-23T05:03:10;24.30;79.00
21944;DHT22;11136;48.778;9.126;2022-07-23T05:05:35;24.30;79.00
21944;DHT22;11136;48.778;9.126;2022-07-23T05:08:01;24.60;79.20
21944;DHT22;11136;48.778;9.126;2022-07-23T05:10:27;24.40;78.80
21944;DHT22;11136;48.778;9.126;2022-07-23T05:12:52;24.40;78.80
21944;DHT22;11136;48.778;9.126;2022-07-23T05:15:18;24.40;78.90
21944;DHT22;11136;48.778;9.126;2022-07-23T05:17:43;24.40;79.20
21944;DHT22;11136;48.778;9.126;2022-07-23T05:20:09;24.40;79.40
21944;DHT22;11136;48.778;9.126;2022-07-23T05:22:35;24.50;79.50
21944;DHT22;11136;48.778;9.126;2022-07-23T05:25:00;24.40;79.40
21944;DHT22;11136;48.778;9.126;2022-07-23T05:27:26;24.50;79.40
21944;DHT22;11136;48.778;9.126;2022-07-23T05:29:51;24.40;79.40
21944;DHT22;11136;48.778;9.126;2022-07-23T05:32:17;24.50;79.80
21944;DHT22;11136;48.778;9.126;2022-07-23T05:34:42;24.50;79.90
21944;DHT22;11136;48.778;9.126;2022-07-23T05:37:08;24.50;79.80
21944;DHT22;11136;48.778;9.126;2022-07-23T05:39:33;24.50;79.60
21944;DHT22;11136;48.778;9.126;2022-07-23T05:42:00;24.50;79.50
21944;DHT22;11136;48.778;9.126;2022-07-23T05:44:25;24.50;80.00
21944;DHT22;11136;48.778;9.126;2022-07-23T05:46:52;24.60;80.00
21944;DHT22;11136;48.778;9.126;2022-07-23T05:49:18;24.70;80.20
21944;DHT22;11136;48.778;9.126;2022-07-23T05:51:43;24.60;80.30
21944;DHT22;11136;48.778;9.126;2022-07-23T05:54:09;24.70;80.50
21944;DHT22;11136;48.778;9.126;2022-07-23T05:56:35;24.70;80.50
21944;DHT22;11136;48.778;9.126;2022-07-23T05:59:00;24.80;80.70
21944;DHT22;11136;48.778;9.126;2022-07-23T06:01:26;24.80;80.70
21944;DHT22;11136;48.778;9.126;2022-07-23T06:03:52;24.80;80.60
21944;DHT22;11136;48.778;9.126;2022-07-23T06:06:17;24.90;80.40
21944;DHT22;11136;48.778;9.126;2022-07-23T06:08:43;24.90;80.20
21944;DHT22;11136;48.778;9.126;2022-07-23T06:11:08;24.90;80.10
21944;DHT22;11136;48.778;9.126;2022-07-23T06:13:34;24.90;80.00
21944;DHT22;11136;48.778;9.126;2022-07-23T06:15:59;25.00;79.80
21944;DHT22;11136;48.778;9.126;2022-07-23T06:18:25;25.00;79.40
21944;DHT22;11136;48.778;9.126;2022-07-23T06:20:53;25.40;80.00
21944;DHT22;11136;48.778;9.126;2022-07-23T06:23:23;25.00;79.70
21944;DHT22;11136;48.778;9.126;2022-07-23T06:25:49;25.10;79.60
21944;DHT22;11136;48.778;9.126;2022-07-23T06:28:14;25.10;79.40
21944;DHT22;11136;48.778;9.126;2022-07-23T06:30:40;25.20;79.10
21944;DHT22;11136;48.778;9.126;2022-07-23T06:33:06;25.20;78.80
21944;DHT22;11136;48.778;9.126;2022-07-23T06:35:32;25.30;78.80
21944;DHT22;11136;48.778;9.126;2022-07-23T06:37:58;25.30;78.60
21944;DHT22;11136;48.778;9.126;2022-07-23T06:40:24;25.30;78.50
21944;DHT22;11136;48.778;9.126;2022-07-23T06:42:50;25.40;78.60
21944;DHT22;11136;48.778;9.126;2022-07-23T06:45:15;25.40;78.10
21944;DHT22;11136;48.778;9.126;2022-07-23T06:47:41;25.50;77.90
21944;DHT22;11136;48.778;9.126;2022-07-23T06:50:07;25.60;78.20
21944;DHT22;11136;48.778;9.126;2022-07-23T06:52:32;25.60;78.20
21944;DHT22;11136;48.778;9.126;2022-07-23T06:54:58;25.70;77.60
21944;DHT22;11136;48.778;9.126;2022-07-23T06:57:23;25.70;77.40
21944;DHT22;11136;48.778;9.126;2022-07-23T06:59:51;25.70;77.00
21944;DHT22;11136;48.778;9.126;2022-07-23T07:02:16;25.70;76.40
21944;DHT22;11136;48.778;9.126;2022-07-23T07:04:42;25.70;76.20
21944;DHT22;11136;48.778;9.126;2022-07-23T07:07:08;25.60;75.90
21944;DHT22;11136;48.778;9.126;2022-07-23T07:09:33;25.50;75.70
21944;DHT22;11136;48.778;9.126;2022-07-23T07:11:59;25.50;75.90
21944;DHT22;11136;48.778;9.126;2022-07-23T07:14:24;25.50;76.30
21944;DHT22;11136;48.778;9.126;2022-07-23T07:16:50;25.40;77.30
21944;DHT22;11136;48.778;9.126;2022-07-23T07:19:15;25.40;78.00
21944;DHT22;11136;48.778;9.126;2022-07-23T07:21:41;25.30;79.00
21944;DHT22;11136;48.778;9.126;2022-07-23T07:24:06;25.30;79.40
21944;DHT22;11136;48.778;9.126;2022-07-23T07:26:32;25.20;81.00
21944;DHT22;11136;48.778;9.126;2022-07-23T07:28:57;25.20;81.40
21944;DHT22;11136;48.778;9.126;2022-07-23T07:31:23;25.20;81.70
21944;DHT22;11136;48.778;9.126;2022-07-23T07:33:49;25.10;83.60
21944;DHT22;11136;48.778;9.126;2022-07-23T07:36:14;25.10;83.60
21944;DHT22;11136;48.778;9.126;2022-07-23T07:38:40;25.10;84.10
21944;DHT22;11136;48.778;9.126;2022-07-23T07:41:06;25.00;83.20
21944;DHT22;11136;48.778;9.126;2022-07-23T07:43:33;25.00;83.60
21944;DHT22;11136;48.778;9.126;2022-07-23T07:45:58;25.00;83.80
21944;DHT22;11136;48.778;9.126;2022-07-23T07:48:24;25.00;84.30
21944;DHT22;11136;48.778;9.126;2022-07-23T07:50:50;25.10;84.60
21944;DHT22;11136;48.778;9.126;2022-07-23T07:53:15;25.20;84.50
21944;DHT22;11136;48.778;9.126;2022-07-23T07:55:41;25.20;84.40
21944;DHT22;11136;48.778;9.126;2022-07-23T07:58:06;25.30;83.70
21944;DHT22;11136;48.778;9.126;2022-07-23T08:00:32;25.40;83.80
21944;DHT22;11136;48.778;9.126;2022-07-23T08:02:58;25.40;83.10
21944;DHT22;11136;48.778;9.126;2022-07-23T08:05:26;25.50;83.00
21944;DHT22;11136;48.778;9.126;2022-07-23T08:07:52;25.50;82.80
21944;DHT22;11136;48.778;9.126;2022-07-23T08:10:18;25.60;83.20
21944;DHT22;11136;48.778;9.126;2022-07-23T08:12:52;25.70;82.90
21944;DHT22;11136;48.778;9.126;2022-07-23T08:15:23;25.70;82.80
21944;DHT22;11136;48.778;9.126;2022-07-23T08:17:49;25.80;81.40
21944;DHT22;11136;48.778;9.126;2022-07-23T08:20:16;25.80;80.20
21944;DHT22;11136;48.778;9.126;2022-07-23T08:25:27;25.60;79.50
21944;DHT22;11136;48.778;9.126;2022-07-23T08:27:53;25.60;78.90
21944;DHT22;11136;48.778;9.126;2022-07-23T08:30:19;25.50;79.30
21944;DHT22;11136;48.778;9.126;2022-07-23T08:32:53;25.40;79.30
21944;DHT22;11136;48.778;9.126;2022-07-23T08:35:25;25.40;80.00
21944;DHT22;11136;48.778;9.126;2022-07-23T08:37:51;25.60;80.50
21944;DHT22;11136;48.778;9.126;2022-07-23T08:40:17;25.50;80.30
21944;DHT22;11136;48.778;9.126;2022-07-23T08:42:42;25.70;80.60
21944;DHT22;11136;48.778;9.126;2022-07-23T08:45:11;25.90;81.30
21944;DHT22;11136;48.778;9.126;2022-07-23T08:47:38;26.20;81.00
21944;DHT22;11136;48.778;9.126;2022-07-23T08:50:04;26.60;79.90
21944;DHT22;11136;48.778;9.126;2022-07-23T08:52:32;27.10;78.10
21944;DHT22;11136;48.778;9.126;2022-07-23T08:55:01;27.40;77.20
21944;DHT22;11136;48.778;9.126;2022-07-23T08:57:27;27.70;74.90
21944;DHT22;11136;48.778;9.126;2022-07-23T08:59:53;27.90;74.00
21944;DHT22;11136;48.778;9.126;2022-07-23T09:02:18;28.00;73.30
21944;DHT22;11136;48.778;9.126;2022-07-23T09:04:44;28.10;72.30
21944;DHT22;11136;48.778;9.126;2022-07-23T09:07:09;28.40;71.70
21944;DHT22;11136;48.778;9.126;2022-07-23T09:09:35;28.30;71.50
21944;DHT22;11136;48.778;9.126;2022-07-23T09:12:07;28.20;70.90
21944;DHT22;11136;48.778;9.126;2022-07-23T09:14:44;28.20;70.40
21944;DHT22;11136;48.778;9.126;2022-07-23T09:17:13;28.20;70.40
21944;DHT22;11136;48.778;9.126;2022-07-23T09:19:40;28.30;70.50
21944;DHT22;11136;48.778;9.126;2022-07-23T09:22:23;28.30;70.10
21944;DHT22;11136;48.778;9.126;2022-07-23T09:25:18;28.40;69.80
21944;DHT22;11136;48.778;9.126;2022-07-23T09:27:50;28.50;69.00
21944;DHT22;11136;48.778;9.126;2022-07-23T09:30:16;28.60;68.90
21944;DHT22;11136;48.778;9.126;2022-07-23T09:32:42;28.70;69.40
21944;DHT22;11136;48.778;9.126;2022-07-23T09:35:08;29.10;68.70
21944;DHT22;11136;48.778;9.126;2022-07-23T09:37:34;28.90;68.10
21944;DHT22;11136;48.778;9.126;2022-07-23T09:40:08;28.90;67.20
21944;DHT22;11136;48.778;9.126;2022-07-23T09:42:35;29.20;67.20
21944;DHT22;11136;48.778;9.126;2022-07-23T09:45:01;29.40;67.10
21944;DHT22;11136;48.778;9.126;2022-07-23T09:47:30;29.70;67.10
21944;DHT22;11136;48.778;9.126;2022-07-23T09:52:32;30.30;65.90
21944;DHT22;11136;48.778;9.126;2022-07-23T09:54:59;30.60;65.20
21944;DHT22;11136;48.778;9.126;2022-07-23T09:57:26;30.90;64.60
21944;DHT22;11136;48.778;9.126;2022-07-23T09:59:52;31.10;63.90
21944;DHT22;11136;48.778;9.126;2022-07-23T10:02:18;31.60;63.10
21944;DHT22;11136;48.778;9.126;2022-07-23T10:04:45;31.70;60.60
21944;DHT22;11136;48.778;9.126;2022-07-23T10:07:14;31.60;60.10
21944;DHT22;11136;48.778;9.126;2022-07-23T10:09:43;31.80;60.00
21944;DHT22;11136;48.778;9.126;2022-07-23T10:12:12;31.80;59.40
21944;DHT22;11136;48.778;9.126;2022-07-23T10:14:38;31.80;58.90
21944;DHT22;11136;48.778;9.126;2022-07-23T10:17:04;31.80;58.90
21944;DHT22;11136;48.778;9.126;2022-07-23T10:19:31;31.90;58.50
21944;DHT22;11136;48.778;9.126;2022-07-23T10:22:01;31.90;58.30
21944;DHT22;11136;48.778;9.126;2022-07-23T10:24:36;31.90;58.10
21944;DHT22;11136;48.778;9.126;2022-07-23T10:27:08;31.70;58.00
21944;DHT22;11136;48.778;9.126;2022-07-23T10:29:51;31.50;57.00
21944;DHT22;11136;48.778;9.126;2022-07-23T10:32:25;31.40;57.30
21944;DHT22;11136;48.778;9.126;2022-07-23T10:35:22;31.30;57.10
21944;DHT22;11136;48.778;9.126;2022-07-23T10:37:47;31.20;57.10
21944;DHT22;11136;48.778;9.126;2022-07-23T10:40:19;31.20;57.30
21944;DHT22;11136;48.778;9.126;2022-07-23T10:42:48;31.40;57.30
21944;DHT22;11136;48.778;9.126;2022-07-23T10:45:33;31.20;57.90
21944;DHT22;11136;48.778;9.126;2022-07-23T10:48:15;31.00;57.70
21944;DHT22;11136;48.778;9.126;2022-07-23T10:50:42;31.00;58.30
21944;DHT22;11136;48.778;9.126;2022-07-23T10:53:17;31.00;58.30
21944;DHT22;11136;48.778;9.126;2022-07-23T10:55:49;30.90;58.70
21944;DHT22;11136;48.778;9.126;2022-07-23T10:58:20;31.20;59.20
21944;DHT22;11136;48.778;9.126;2022-07-23T11:00:46;30.90;58.90
21944;DHT22;11136;48.778;9.126;2022-07-23T11:03:32;30.90;59.40
21944;DHT22;11136;48.778;9.126;2022-07-23T11:05:58;30.90;59.30
21944;DHT22;11136;48.778;9.126;2022-07-23T11:08:24;31.00;59.40
21944;DHT22;11136;48.778;9.126;2022-07-23T11:13:36;31.00;59.10
21944;DHT22;11136;48.778;9.126;2022-07-23T11:18:54;31.00;58.70
21944;DHT22;11136;48.778;9.126;2022-07-23T11:32:08;30.80;58.70
21944;DHT22;11136;48.778;9.126;2022-07-23T11:34:34;30.80;59.10
21944;DHT22;11136;48.778;9.126;2022-07-23T11:37:05;30.70;59.40
21944;DHT22;11136;48.778;9.126;2022-07-23T11:39:32;30.70;59.90
21944;DHT22;11136;48.778;9.126;2022-07-23T11:41:59;30.90;60.60
21944;DHT22;11136;48.778;9.126;2022-07-23T11:44:29;30.80;59.50
21944;DHT22;11136;48.778;9.126;2022-07-23T11:47:00;30.80;59.40
21944;DHT22;11136;48.778;9.126;2022-07-23T11:49:27;30.80;59.50
21944;DHT22;11136;48.778;9.126;2022-07-23T11:52:06;30.90;58.80
21944;DHT22;11136;48.778;9.126;2022-07-23T11:54:33;31.00;59.10
21944;DHT22;11136;48.778;9.126;2022-07-23T11:56:59;31.10;59.00
21944;DHT22;11136;48.778;9.126;2022-07-23T11:59:31;31.20;58.80
21944;DHT22;11136;48.778;9.126;2022-07-23T12:02:02;31.30;58.70
21944;DHT22;11136;48.778;9.126;2022-07-23T12:04:40;31.40;58.80
21944;DHT22;11136;48.778;9.126;2022-07-23T12:09:54;31.70;58.70
21944;DHT22;11136;48.778;9.126;2022-07-23T12:12:20;31.80;57.60
21944;DHT22;11136;48.778;9.126;2022-07-23T12:14:55;32.00;57.40
21944;DHT22;11136;48.778;9.126;2022-07-23T12:17:30;32.00;57.40
21944;DHT22;11136;48.778;9.126;2022-07-23T12:19:58;32.10;56.60
21944;DHT22;11136;48.778;9.126;2022-07-23T12:22:25;32.20;56.50
21944;DHT22;11136;48.778;9.126;2022-07-23T12:27:22;32.20;56.30
21944;DHT22;11136;48.778;9.126;2022-07-23T12:29:48;32.40;56.70
21944;DHT22;11136;48.778;9.126;2022-07-23T12:32:31;32.40;57.20
21944;DHT22;11136;48.778;9.126;2022-07-23T12:35:08;32.60;56.30
21944;DHT22;11136;48.778;9.126;2022-07-23T12:37:36;32.50;55.30
21944;DHT22;11136;48.778;9.126;2022-07-23T12:40:20;32.50;55.80
21944;DHT22;11136;48.778;9.126;2022-07-23T12:43:00;32.50;56.90
21944;DHT22;11136;48.778;9.126;2022-07-23T12:45:27;32.80;56.10
21944;DHT22;11136;48.778;9.126;2022-07-23T12:47:56;32.50;55.70
21944;DHT22;11136;48.778;9.126;2022-07-23T12:50:43;32.50;55.70
21944;DHT22;11136;48.778;9.126;2022-07-23T12:53:12;32.70;55.90
21944;DHT22;11136;48.778;9.126;2022-07-23T12:55:39;33.00;55.90
21944;DHT22;11136;48.778;9.126;2022-07-23T12:58:09;33.00;55.00
21944;DHT22;11136;48.778;9.126;2022-07-23T13:00:57;33.10;54.40
21944;DHT22;11136;48.778;9.126;2022-07-23T13:03:33;33.20;54.30
21944;DHT22;11136;48.778;9.126;2022-07-23T13:06:00;33.20;53.80
21944;DHT22;11136;48.778;9.126;2022-07-23T13:08:28;33.20;53.40
21944;DHT22;11136;48.778;9.126;2022-07-23T13:10:54;33.20;53.60
21944;DHT22;11136;48.778;9.126;2022-07-23T13:13:24;33.00;53.30
21944;DHT22;11136;48.778;9.126;2022-07-23T13:15:50;33.00;53.20
21944;DHT22;11136;48.778;9.126;2022-07-23T13:18:16;33.00;53.30
21944;DHT22;11136;48.778;9.126;2022-07-23T13:20:43;33.20;53.20
21944;DHT22;11136;48.778;9.126;2022-07-23T13:23:09;33.00;53.10
21944;DHT22;11136;48.778;9.126;2022-07-23T13:25:34;33.60;52.70
21944;DHT22;11136;48.778;9.126;2022-07-23T13:28:08;33.70;52.70
21944;DHT22;11136;48.778;9.126;2022-07-23T13:30:34;34.40;52.70
21944;DHT22;11136;48.778;9.126;2022-07-23T13:33:13;35.10;51.70
21944;DHT22;11136;48.778;9.126;2022-07-23T13:35:39;35.90;49.60
21944;DHT22;11136;48.778;9.126;2022-07-23T13:38:15;36.50;49.40
21944;DHT22;11136;48.778;9.126;2022-07-23T13:40:43;37.30;48.60
21944;DHT22;11136;48.778;9.126;2022-07-23T13:43:13;38.20;47.50
21944;DHT22;11136;48.778;9.126;2022-07-23T13:45:40;39.10;46.80
21944;DHT22;11136;48.778;9.126;2022-07-23T13:48:13;40.10;45.80
21944;DHT22;11136;48.778;9.126;2022-07-23T13:50:40;41.20;44.60
21944;DHT22;11136;48.778;9.126;2022-07-23T13:53:10;42.20;43.20
21944;DHT22;11136;48.778;9.126;2022-07-23T13:55:42;42.80;41.60
21944;DHT22;11136;48.778;9.126;2022-07-23T13:58:09;43.50;41.50
21944;DHT22;11136;48.778;9.126;2022-07-23T14:00:37;44.10;39.70
21944;DHT22;11136;48.778;9.126;2022-07-23T14:03:03;44.40;38.70
21944;DHT22;11136;48.778;9.126;2022-07-23T14:05:30;44.40;37.60
21944;DHT22;11136;48.778;9.126;2022-07-23T14:07:56;43.70;38.20
21944;DHT22;11136;48.778;9.126;2022-07-23T14:10:22;43.50;39.10
21944;DHT22;11136;48.778;9.126;2022-07-23T14:12:49;43.50;39.00
21944;DHT22;11136;48.778;9.126;2022-07-23T14:15:16;43.70;38.80
21944;DHT22;11136;48.778;9.126;2022-07-23T14:17:44;43.80;38.40
21944;DHT22;11136;48.778;9.126;2022-07-23T14:20:10;43.90;38.10
21944;DHT22;11136;48.778;9.126;2022-07-23T14:22:36;44.10;37.10
21944;DHT22;11136;48.778;9.126;2022-07-23T14:25:03;44.20;37.30
21944;DHT22;11136;48.778;9.126;2022-07-23T14:27:29;44.40;36.80
21944;DHT22;11136;48.778;9.126;2022-07-23T14:29:56;44.80;36.70
21944;DHT22;11136;48.778;9.126;2022-07-23T14:32:22;44.50;36.60
21944;DHT22;11136;48.778;9.126;2022-07-23T14:34:48;43.80;36.10
21944;DHT22;11136;48.778;9.126;2022-07-23T14:37:15;43.50;36.00
21944;DHT22;11136;48.778;9.126;2022-07-23T14:39:42;43.00;36.00
21944;DHT22;11136;48.778;9.126;2022-07-23T14:42:09;42.70;36.90
21944;DHT22;11136;48.778;9.126;2022-07-23T14:44:35;42.50;37.60
21944;DHT22;11136;48.778;9.126;2022-07-23T14:47:02;42.40;38.10
21944;DHT22;11136;48.778;9.126;2022-07-23T14:49:31;42.70;37.50
21944;DHT22;11136;48.778;9.126;2022-07-23T14:51:57;42.80;37.60
21944;DHT22;11136;48.778;9.126;2022-07-23T14:54:23;43.10;37.30
21944;DHT22;11136;48.778;9.126;2022-07-23T14:56:51;43.20;36.40
21944;DHT22;11136;48.778;9.126;2022-07-23T14:59:17;43.20;36.20
21944;DHT22;11136;48.778;9.126;2022-07-23T15:01:46;43.20;36.40
21944;DHT22;11136;48.778;9.126;2022-07-23T15:04:15;43.40;36.30
21944;DHT22;11136;48.778;9.126;2022-07-23T15:06:44;43.50;36.40
21944;DHT22;11136;48.778;9.126;2022-07-23T15:09:10;43.90;36.60
21944;DHT22;11136;48.778;9.126;2022-07-23T15:11:45;43.30;36.50
21944;DHT22;11136;48.778;9.126;2022-07-23T15:14:14;42.70;36.60
21944;DHT22;11136;48.778;9.126;2022-07-23T15:16:43;42.00;37.30
21944;DHT22;11136;48.778;9.126;2022-07-23T15:19:09;41.10;38.00
21944;DHT22;11136;48.778;9.126;2022-07-23T15:21:35;40.60;39.20
21944;DHT22;11136;48.778;9.126;2022-07-23T15:24:10;40.70;39.40
21944;DHT22;11136;48.778;9.126;2022-07-23T15:26:37;40.90;39.30
21944;DHT22;11136;48.778;9.126;2022-07-23T15:29:05;41.50;38.90
21944;DHT22;11136;48.778;9.126;2022-07-23T15:31:33;41.70;38.30
21944;DHT22;11136;48.778;9.126;2022-07-23T15:34:03;42.10;38.40
21944;DHT22;11136;48.778;9.126;2022-07-23T15:36:30;41.90;37.70
21944;DHT22;11136;48.778;9.126;2022-07-23T15:38:56;41.70;37.60
21944;DHT22;11136;48.778;9.126;2022-07-23T15:41:22;41.20;37.90
21944;DHT22;11136;48.778;9.126;2022-07-23T15:43:47;40.60;38.30
21944;DHT22;11136;48.778;9.126;2022-07-23T15:46:14;40.10;38.90
21944;DHT22;11136;48.778;9.126;2022-07-23T15:48:44;40.00;39.70
21944;DHT22;11136;48.778;9.126;2022-07-23T15:51:10;40.00;39.60
21944;DHT22;11136;48.778;9.126;2022-07-23T15:53:37;39.70;40.30
21944;DHT22;11136;48.778;9.126;2022-07-23T15:56:05;39.30;40.30
21944;DHT22;11136;48.778;9.126;2022-07-23T15:58:31;38.80;40.20